createdAt,value
2023-05-09T00:00:11.384Z,21.54
2023-05-09T00:00:42.945Z,21.53
2023-05-09T00:01:14.530Z,21.55
2023-05-09T00:01:46.230Z,21.54
2023-05-09T00:02:17.924Z,21.54
2023-05-09T00:02:49.711Z,21.51
2023-05-09T00:03:21.664Z,21.51
2023-05-09T00:03:53.437Z,21.48
2023-05-09T00:04:25.572Z,21.51
2023-05-09T00:04:57.433Z,21.48
2023-05-09T00:05:29.002Z,21.48
2023-05-09T00:06:00.589Z,21.46
2023-05-09T00:06:32.209Z,21.52
2023-05-09T00:07:03.857Z,21.50
2023-05-09T00:07:35.486Z,21.48
2023-05-09T00:08:07.152Z,21.47
2023-05-09T00:08:38.696Z,21.48
2023-05-09T00:09:10.292Z,21.50
2023-05-09T00:09:41.861Z,21.48
2023-05-09T00:10:13.559Z,21.46
2023-05-09T00:10:45.133Z,21.44
2023-05-09T00:11:16.796Z,21.45
2023-05-09T00:11:48.415Z,21.47
2023-05-09T00:12:20.218Z,21.48
2023-05-09T00:12:51.862Z,21.50
2023-05-09T00:13:23.557Z,21.48
2023-05-09T00:13:55.181Z,21.49
2023-05-09T00:14:26.733Z,21.45
2023-05-09T00:14:58.467Z,21.43
2023-05-09T00:15:30.013Z,21.42
2023-05-09T00:16:01.566Z,21.46
2023-05-09T00:16:33.255Z,21.49
2023-05-09T00:17:05.022Z,21.49
2023-05-09T00:17:36.679Z,21.48
2023-05-09T00:18:08.321Z,21.50
2023-05-09T00:18:39.901Z,21.52
2023-05-09T00:19:11.455Z,21.51
2023-05-09T00:19:43.381Z,21.48
2023-05-09T00:20:14.944Z,21.51
2023-05-09T00:20:46.587Z,21.49
2023-05-09T00:21:18.173Z,21.49
2023-05-09T00:21:49.958Z,21.48
2023-05-09T00:22:21.670Z,21.47
2023-05-09T00:22:53.319Z,21.50
2023-05-09T00:23:24.967Z,21.47
2023-05-09T00:23:56.826Z,21.49
2023-05-09T00:24:28.422Z,21.48
2023-05-09T00:25:00.314Z,21.46
2023-05-09T00:25:31.925Z,21.49
2023-05-09T00:26:03.580Z,21.50
2023-05-09T00:26:35.134Z,21.48
2023-05-09T00:27:06.740Z,21.46
2023-05-09T00:27:38.295Z,21.44
2023-05-09T00:28:10.071Z,21.40
2023-05-09T00:28:41.795Z,21.42
2023-05-09T00:29:13.558Z,21.40
2023-05-09T00:29:45.322Z,21.40
2023-05-09T00:30:16.990Z,21.44
2023-05-09T00:30:48.631Z,21.43
2023-05-09T00:31:20.602Z,21.44
2023-05-09T00:31:52.474Z,21.44
2023-05-09T00:32:24.323Z,21.43
2023-05-09T00:32:56.180Z,21.46
2023-05-09T00:33:28.029Z,21.42
2023-05-09T00:33:59.794Z,21.39
2023-05-09T00:34:31.605Z,21.43
2023-05-09T00:35:03.352Z,21.39
2023-05-09T00:35:35.063Z,21.42
2023-05-09T00:36:06.905Z,21.45
2023-05-09T00:36:38.532Z,21.42
2023-05-09T00:37:10.178Z,21.46
2023-05-09T00:37:41.802Z,21.42
2023-05-09T00:38:13.506Z,21.39
2023-05-09T00:38:45.125Z,21.39
2023-05-09T00:39:16.685Z,21.45
2023-05-09T00:39:48.476Z,21.42
2023-05-09T00:40:20.119Z,21.37
2023-05-09T00:40:51.667Z,21.39
2023-05-09T00:41:23.236Z,21.37
2023-05-09T00:41:55.849Z,21.39
2023-05-09T00:42:27.496Z,21.42
2023-05-09T00:42:59.494Z,21.42
2023-05-09T00:43:31.057Z,21.40
2023-05-09T00:44:02.712Z,21.37
2023-05-09T00:44:34.279Z,21.39
2023-05-09T00:45:06.348Z,21.37
2023-05-09T00:45:37.938Z,21.35
2023-05-09T00:46:09.582Z,21.39
2023-05-09T00:46:41.244Z,21.37
2023-05-09T00:47:12.942Z,21.36
2023-05-09T00:47:44.578Z,21.36
2023-05-09T00:48:16.189Z,21.33
2023-05-09T00:48:47.827Z,21.34
2023-05-09T00:49:19.416Z,21.37
2023-05-09T00:49:51.051Z,21.37
2023-05-09T00:50:22.706Z,21.37
2023-05-09T00:50:54.285Z,21.39
2023-05-09T00:51:25.894Z,21.39
2023-05-09T00:51:57.563Z,21.37
2023-05-09T00:52:29.143Z,21.37
2023-05-09T00:53:00.752Z,21.36
2023-05-09T00:53:32.379Z,21.37
2023-05-09T00:54:04.004Z,21.37
2023-05-09T00:54:35.678Z,21.36
2023-05-09T00:55:07.488Z,21.39
2023-05-09T00:55:39.791Z,21.42
2023-05-09T00:56:11.388Z,21.40
2023-05-09T00:56:42.961Z,21.43
2023-05-09T00:57:14.521Z,21.39
2023-05-09T00:57:46.157Z,21.39
2023-05-09T00:58:17.690Z,21.40
2023-05-09T00:58:49.294Z,21.35
2023-05-09T00:59:20.841Z,21.35
2023-05-09T00:59:52.476Z,21.35
2023-05-09T01:00:24.195Z,21.37
2023-05-09T01:00:55.795Z,21.35
2023-05-09T01:01:27.500Z,21.36
2023-05-09T01:01:59.129Z,21.39
2023-05-09T01:02:30.886Z,21.33
2023-05-09T01:03:02.613Z,21.35
2023-05-09T01:03:34.350Z,21.33
2023-05-09T01:04:05.968Z,21.32
2023-05-09T01:04:37.594Z,21.34
2023-05-09T01:05:09.365Z,21.31
2023-05-09T01:05:51.711Z,21.33
2023-05-09T01:06:30.601Z,21.38
2023-05-09T01:07:06.530Z,21.36
2023-05-09T01:07:52.619Z,21.40
2023-05-09T01:08:32.984Z,21.37
2023-05-09T01:09:21.035Z,21.39
2023-05-09T01:10:07.626Z,21.40
2023-05-09T01:10:54.540Z,21.34
2023-05-09T01:11:34.769Z,21.32
2023-05-09T01:12:26.499Z,21.32
2023-05-09T01:13:14.401Z,21.32
2023-05-09T01:13:48.538Z,21.30
2023-05-09T01:14:20.250Z,21.31
2023-05-09T01:14:57.417Z,21.31
2023-05-09T01:15:49.065Z,21.31
2023-05-09T01:16:20.662Z,21.33
2023-05-09T01:17:10.718Z,21.33
2023-05-09T01:17:47.995Z,21.30
2023-05-09T01:18:21.568Z,21.32
2023-05-09T01:18:56.268Z,21.36
2023-05-09T01:19:46.160Z,21.35
2023-05-09T01:20:20.720Z,21.35
2023-05-09T01:21:00.209Z,21.40
2023-05-09T01:21:31.733Z,21.39
2023-05-09T01:22:03.991Z,21.36
2023-05-09T01:22:35.610Z,21.36
2023-05-09T01:23:25.565Z,21.40
2023-05-09T01:24:15.778Z,21.33
2023-05-09T01:25:05.680Z,21.37
2023-05-09T01:25:40.978Z,21.40
2023-05-09T01:26:35.163Z,21.37
2023-05-09T01:27:12.246Z,21.37
2023-05-09T01:28:02.842Z,21.39
2023-05-09T01:28:35.206Z,21.35
2023-05-09T01:29:14.733Z,21.35
2023-05-09T01:29:47.305Z,21.33
2023-05-09T01:30:18.941Z,21.31
2023-05-09T01:30:50.511Z,21.32
2023-05-09T01:31:22.206Z,21.36
2023-05-09T01:31:53.889Z,21.35
2023-05-09T01:32:27.000Z,21.30
2023-05-09T01:32:59.586Z,21.31
2023-05-09T01:33:31.305Z,21.36
2023-05-09T01:34:02.913Z,21.31
2023-05-09T01:34:34.465Z,21.29
2023-05-09T01:35:06.230Z,21.32
2023-05-09T01:35:37.896Z,21.31
2023-05-09T01:36:17.272Z,21.36
2023-05-09T01:36:49.021Z,21.38
2023-05-09T01:37:22.318Z,21.35
2023-05-09T01:37:53.959Z,21.34
2023-05-09T01:38:25.578Z,21.31
2023-05-09T01:38:57.291Z,21.30
2023-05-09T01:39:28.984Z,21.32
2023-05-09T01:40:00.852Z,21.31
2023-05-09T01:40:32.473Z,21.32
2023-05-09T01:41:04.129Z,21.35
2023-05-09T01:41:36.396Z,21.33
2023-05-09T01:42:08.485Z,21.32
2023-05-09T01:43:00.383Z,21.30
2023-05-09T01:43:32.061Z,21.32
2023-05-09T01:44:04.629Z,21.31
2023-05-09T01:44:37.418Z,21.26
2023-05-09T01:45:09.728Z,21.24
2023-05-09T01:45:41.610Z,21.30
2023-05-09T01:46:13.258Z,21.34
2023-05-09T01:46:44.981Z,21.31
2023-05-09T01:47:16.601Z,21.30
2023-05-09T01:47:48.503Z,21.33
2023-05-09T01:48:20.223Z,21.31
2023-05-09T01:48:51.838Z,21.30
2023-05-09T01:49:24.651Z,21.30
2023-05-09T01:49:56.285Z,21.28
2023-05-09T01:50:28.696Z,21.27
2023-05-09T01:51:00.287Z,21.30
2023-05-09T01:51:31.869Z,21.29
2023-05-09T01:52:07.429Z,21.33
2023-05-09T01:52:39.130Z,21.36
2023-05-09T01:53:10.709Z,21.35
2023-05-09T01:53:42.350Z,21.34
2023-05-09T01:54:13.897Z,21.36
2023-05-09T01:54:45.478Z,21.35
2023-05-09T01:55:17.137Z,21.35
2023-05-09T01:55:48.712Z,21.36
2023-05-09T01:56:20.260Z,21.33
2023-05-09T01:56:51.813Z,21.28
2023-05-09T01:57:23.367Z,21.28
2023-05-09T01:57:55.025Z,21.28
2023-05-09T01:58:27.088Z,21.32
2023-05-09T01:58:58.810Z,21.36
2023-05-09T01:59:31.022Z,21.34
2023-05-09T02:00:02.901Z,21.31
2023-05-09T02:00:34.944Z,21.31
2023-05-09T02:01:06.684Z,21.32
2023-05-09T02:01:38.324Z,21.35
2023-05-09T02:02:09.989Z,21.36
2023-05-09T02:02:41.820Z,21.33
2023-05-09T02:03:13.606Z,21.32
2023-05-09T02:03:45.605Z,21.33
2023-05-09T02:04:17.349Z,21.31
2023-05-09T02:04:48.968Z,21.34
2023-05-09T02:05:20.623Z,21.32
2023-05-09T02:05:52.257Z,21.30
2023-05-09T02:06:23.913Z,21.29
2023-05-09T02:06:55.456Z,21.26
2023-05-09T02:07:27.049Z,21.28
2023-05-09T02:07:59.124Z,21.30
2023-05-09T02:08:30.890Z,21.31
2023-05-09T02:09:02.503Z,21.29
2023-05-09T02:09:34.085Z,21.28
2023-05-09T02:10:05.974Z,21.33
2023-05-09T02:10:37.591Z,21.35
2023-05-09T02:11:09.206Z,21.35
2023-05-09T02:11:40.826Z,21.33
2023-05-09T02:12:12.405Z,21.32
2023-05-09T02:12:44.064Z,21.30
2023-05-09T02:13:15.697Z,21.29
2023-05-09T02:13:47.381Z,21.29
2023-05-09T02:14:18.951Z,21.31
2023-05-09T02:14:50.864Z,21.35
2023-05-09T02:15:22.482Z,21.34
2023-05-09T02:15:54.269Z,21.35
2023-05-09T02:16:25.831Z,21.31
2023-05-09T02:16:57.602Z,21.33
2023-05-09T02:17:29.451Z,21.34
2023-05-09T02:18:01.194Z,21.33
2023-05-09T02:18:32.852Z,21.35
2023-05-09T02:19:04.442Z,21.35
2023-05-09T02:19:36.053Z,21.34
2023-05-09T02:20:08.053Z,21.31
2023-05-09T02:20:40.080Z,21.30
2023-05-09T02:21:11.891Z,21.32
2023-05-09T02:21:43.531Z,21.37
2023-05-09T02:22:15.295Z,21.36
2023-05-09T02:22:46.891Z,21.33
2023-05-09T02:23:18.527Z,21.31
2023-05-09T02:23:50.149Z,21.29
2023-05-09T02:24:21.746Z,21.30
2023-05-09T02:24:53.313Z,21.28
2023-05-09T02:25:24.937Z,21.31
2023-05-09T02:25:56.628Z,21.28
2023-05-09T02:26:28.440Z,21.33
2023-05-09T02:27:00.280Z,21.31
2023-05-09T02:27:32.704Z,21.27
2023-05-09T02:28:04.304Z,21.25
2023-05-09T02:28:35.954Z,21.30
2023-05-09T02:29:07.503Z,21.31
2023-05-09T02:29:41.715Z,21.35
2023-05-09T02:30:18.189Z,21.30
2023-05-09T02:30:49.882Z,21.28
2023-05-09T02:31:22.008Z,21.26
2023-05-09T02:31:53.591Z,21.29
2023-05-09T02:32:25.831Z,21.28
2023-05-09T02:32:59.285Z,21.27
2023-05-09T02:33:30.847Z,21.29
2023-05-09T02:34:02.649Z,21.28
2023-05-09T02:34:34.238Z,21.29
2023-05-09T02:35:06.651Z,21.30
2023-05-09T02:35:38.328Z,21.28
2023-05-09T02:36:10.006Z,21.26
2023-05-09T02:36:41.562Z,21.28
2023-05-09T02:37:13.397Z,21.28
2023-05-09T02:37:45.386Z,21.24
2023-05-09T02:38:16.992Z,21.27
2023-05-09T02:38:48.707Z,21.29
2023-05-09T02:39:20.329Z,21.30
2023-05-09T02:39:51.912Z,21.32
2023-05-09T02:40:23.490Z,21.32
2023-05-09T02:40:55.224Z,21.27
2023-05-09T02:41:26.783Z,21.26
2023-05-09T02:42:04.866Z,21.30
2023-05-09T02:42:36.543Z,21.29
2023-05-09T02:43:08.112Z,21.31
2023-05-09T02:43:39.691Z,21.28
2023-05-09T02:44:11.609Z,21.27
2023-05-09T02:44:43.160Z,21.30
2023-05-09T02:45:15.010Z,21.31
2023-05-09T02:45:46.807Z,21.32
2023-05-09T02:46:18.541Z,21.35
2023-05-09T02:46:50.370Z,21.35
2023-05-09T02:47:22.031Z,21.30
2023-05-09T02:47:53.795Z,21.27
2023-05-09T02:48:25.512Z,21.31
2023-05-09T02:48:57.390Z,21.28
2023-05-09T02:49:32.285Z,21.26
2023-05-09T02:50:04.660Z,21.27
2023-05-09T02:50:36.301Z,21.28
2023-05-09T02:51:07.869Z,21.30
2023-05-09T02:51:39.609Z,21.30
2023-05-09T02:52:11.232Z,21.25
2023-05-09T02:52:42.874Z,21.25
2023-05-09T02:53:14.429Z,21.23
2023-05-09T02:53:46.066Z,21.24
2023-05-09T02:54:17.715Z,21.26
2023-05-09T02:54:49.311Z,21.23
2023-05-09T02:55:20.884Z,21.24
2023-05-09T02:55:52.645Z,21.23
2023-05-09T02:56:24.273Z,21.21
2023-05-09T02:56:58.622Z,21.24
2023-05-09T02:57:30.247Z,21.24
2023-05-09T02:58:12.141Z,21.26
2023-05-09T02:58:44.878Z,21.21
2023-05-09T02:59:17.934Z,21.21
2023-05-09T02:59:49.558Z,21.27
2023-05-09T03:00:21.188Z,21.25
2023-05-09T03:00:52.818Z,21.21
2023-05-09T03:01:24.528Z,21.24
2023-05-09T03:01:56.187Z,21.22
2023-05-09T03:02:27.956Z,21.26
2023-05-09T03:03:00.229Z,21.25
2023-05-09T03:03:31.999Z,21.22
2023-05-09T03:04:03.692Z,21.19
2023-05-09T03:04:35.285Z,21.17
2023-05-09T03:05:07.010Z,21.20
2023-05-09T03:05:38.561Z,21.17
2023-05-09T03:06:10.151Z,21.23
2023-05-09T03:06:41.790Z,21.19
2023-05-09T03:07:13.415Z,21.22
2023-05-09T03:07:45.012Z,21.21
2023-05-09T03:08:16.589Z,21.22
2023-05-09T03:08:48.244Z,21.20
2023-05-09T03:09:19.941Z,21.24
2023-05-09T03:09:51.538Z,21.20
2023-05-09T03:10:23.178Z,21.19
2023-05-09T03:10:54.845Z,21.23
2023-05-09T03:11:26.401Z,21.21
2023-05-09T03:11:58.108Z,21.18
2023-05-09T03:12:29.688Z,21.20
2023-05-09T03:13:01.521Z,21.18
2023-05-09T03:13:33.076Z,21.18
2023-05-09T03:14:04.866Z,21.19
2023-05-09T03:14:36.500Z,21.18
2023-05-09T03:15:08.436Z,21.21
2023-05-09T03:15:39.995Z,21.23
2023-05-09T03:16:14.666Z,21.20
2023-05-09T03:16:46.250Z,21.23
2023-05-09T03:17:17.905Z,21.20
2023-05-09T03:17:49.535Z,21.19
2023-05-09T03:18:21.183Z,21.18
2023-05-09T03:18:52.773Z,21.20
2023-05-09T03:19:24.366Z,21.18
2023-05-09T03:19:56.005Z,21.23
2023-05-09T03:20:27.576Z,21.21
2023-05-09T03:20:59.183Z,21.18
2023-05-09T03:21:30.751Z,21.20
2023-05-09T03:22:02.318Z,21.22
2023-05-09T03:22:33.908Z,21.18
2023-05-09T03:23:05.445Z,21.15
2023-05-09T03:23:37.079Z,21.18
2023-05-09T03:24:08.673Z,21.17
2023-05-09T03:24:40.302Z,21.13
2023-05-09T03:25:11.999Z,21.14
2023-05-09T03:25:43.697Z,21.18
2023-05-09T03:26:15.234Z,21.14
2023-05-09T03:26:46.828Z,21.13
2023-05-09T03:27:18.427Z,21.10
2023-05-09T03:27:50.028Z,21.13
2023-05-09T03:28:21.597Z,21.12
2023-05-09T03:28:53.229Z,21.10
2023-05-09T03:29:24.780Z,21.10
2023-05-09T03:29:56.373Z,21.10
2023-05-09T03:30:28.008Z,21.09
2023-05-09T03:30:59.605Z,21.09
2023-05-09T03:31:31.335Z,21.09
2023-05-09T03:32:03.049Z,21.10
2023-05-09T03:32:34.713Z,21.07
2023-05-09T03:33:06.497Z,21.08
2023-05-09T03:33:38.108Z,21.07
2023-05-09T03:34:09.676Z,21.08
2023-05-09T03:34:41.281Z,21.13
2023-05-09T03:35:13.270Z,21.11
2023-05-09T03:35:45.045Z,21.10
2023-05-09T03:36:16.650Z,21.10
2023-05-09T03:36:48.307Z,21.13
2023-05-09T03:37:19.895Z,21.13
2023-05-09T03:37:51.525Z,21.16
2023-05-09T03:38:23.236Z,21.13
2023-05-09T03:38:54.829Z,21.10
2023-05-09T03:39:26.447Z,21.14
2023-05-09T03:39:58.234Z,21.14
2023-05-09T03:40:29.788Z,21.13
2023-05-09T03:41:01.343Z,21.10
2023-05-09T03:41:32.938Z,21.11
2023-05-09T03:42:04.649Z,21.12
2023-05-09T03:42:36.240Z,21.14
2023-05-09T03:43:07.790Z,21.16
2023-05-09T03:43:39.417Z,21.14
2023-05-09T03:44:10.977Z,21.18
2023-05-09T03:44:42.535Z,21.16
2023-05-09T03:45:14.414Z,21.14
2023-05-09T03:45:46.245Z,21.11
2023-05-09T03:46:17.842Z,21.14
2023-05-09T03:46:49.472Z,21.14
2023-05-09T03:47:21.034Z,21.12
2023-05-09T03:47:52.657Z,21.12
2023-05-09T03:48:24.313Z,21.10
2023-05-09T03:48:56.005Z,21.07
2023-05-09T03:49:27.753Z,21.07
2023-05-09T03:49:59.341Z,21.10
2023-05-09T03:50:30.959Z,21.09
2023-05-09T03:51:02.508Z,21.11
2023-05-09T03:51:36.641Z,21.11
2023-05-09T03:52:08.233Z,21.11
2023-05-09T03:52:39.783Z,21.08
2023-05-09T03:53:11.365Z,21.08
2023-05-09T03:53:43.605Z,21.08
2023-05-09T03:54:15.199Z,21.10
2023-05-09T03:54:46.863Z,21.12
2023-05-09T03:55:18.486Z,21.10
2023-05-09T03:55:50.067Z,21.14
2023-05-09T03:56:21.856Z,21.11
2023-05-09T03:56:53.452Z,21.10
2023-05-09T03:57:25.088Z,21.09
2023-05-09T03:57:56.719Z,21.06
2023-05-09T03:58:28.547Z,21.09
2023-05-09T03:59:00.251Z,21.07
2023-05-09T03:59:31.838Z,21.05
2023-05-09T04:00:03.978Z,21.09
2023-05-09T04:00:35.559Z,21.11
2023-05-09T04:01:07.144Z,21.11
2023-05-09T04:01:40.081Z,21.11
2023-05-09T04:02:11.936Z,21.08
2023-05-09T04:02:43.674Z,21.08
2023-05-09T04:03:15.404Z,21.10
2023-05-09T04:03:47.034Z,21.08
2023-05-09T04:04:18.805Z,21.07
2023-05-09T04:04:50.380Z,21.07
2023-05-09T04:05:21.966Z,21.07
2023-05-09T04:05:53.684Z,21.03
2023-05-09T04:06:25.251Z,21.03
2023-05-09T04:06:56.801Z,21.06
2023-05-09T04:07:28.591Z,21.07
2023-05-09T04:08:00.173Z,21.07
2023-05-09T04:08:32.182Z,21.07
2023-05-09T04:09:03.974Z,21.09
2023-05-09T04:09:35.648Z,21.07
2023-05-09T04:10:07.678Z,21.09
2023-05-09T04:10:39.263Z,21.09
2023-05-09T04:11:10.828Z,21.14
2023-05-09T04:11:42.379Z,21.15
2023-05-09T04:12:13.939Z,21.14
2023-05-09T04:13:23.905Z,21.14
2023-05-09T04:13:55.342Z,21.14
2023-05-09T04:14:26.673Z,21.13
2023-05-09T04:14:58.199Z,21.11
2023-05-09T04:15:29.779Z,21.10
2023-05-09T04:16:01.684Z,21.13
2023-05-09T04:16:33.533Z,21.11
2023-05-09T04:17:05.481Z,21.11
2023-05-09T04:17:37.273Z,21.13
2023-05-09T04:18:08.997Z,21.11
2023-05-09T04:18:40.669Z,21.12
2023-05-09T04:19:12.266Z,21.10
2023-05-09T04:19:43.897Z,21.10
2023-05-09T04:20:15.512Z,21.12
2023-05-09T04:20:47.184Z,21.09
2023-05-09T04:21:18.910Z,21.12
2023-05-09T04:21:50.565Z,21.11
2023-05-09T04:22:22.276Z,21.09
2023-05-09T04:22:54.013Z,21.08
2023-05-09T04:23:25.578Z,21.08
2023-05-09T04:23:57.363Z,21.12
2023-05-09T04:24:28.964Z,21.11
2023-05-09T04:25:00.579Z,21.10
2023-05-09T04:25:32.271Z,21.13
2023-05-09T04:26:03.885Z,21.17
2023-05-09T04:26:35.475Z,21.17
2023-05-09T04:27:07.021Z,21.16
2023-05-09T04:27:38.612Z,21.15
2023-05-09T04:28:10.321Z,21.14
2023-05-09T04:28:41.913Z,21.15
2023-05-09T04:29:13.530Z,21.15
2023-05-09T04:29:45.160Z,21.14
2023-05-09T04:30:16.787Z,21.12
2023-05-09T04:30:48.563Z,21.11
2023-05-09T04:31:20.346Z,21.15
2023-05-09T04:31:52.173Z,21.14
2023-05-09T04:32:23.966Z,21.13
2023-05-09T04:32:55.670Z,21.12
2023-05-09T04:33:27.323Z,21.16
2023-05-09T04:33:58.894Z,21.16
2023-05-09T04:34:30.575Z,21.17
2023-05-09T04:35:02.286Z,21.17
2023-05-09T04:35:33.955Z,21.13
2023-05-09T04:36:05.974Z,21.09
2023-05-09T04:36:37.515Z,21.12
2023-05-09T04:37:09.109Z,21.14
2023-05-09T04:37:40.681Z,21.12
2023-05-09T04:38:12.301Z,21.09
2023-05-09T04:38:43.908Z,21.11
2023-05-09T04:39:15.471Z,21.16
2023-05-09T04:39:47.120Z,21.15
2023-05-09T04:40:18.826Z,21.13
2023-05-09T04:40:50.381Z,21.12
2023-05-09T04:41:22.047Z,21.11
2023-05-09T04:41:53.667Z,21.11
2023-05-09T04:42:25.259Z,21.11
2023-05-09T04:42:57.103Z,21.12
2023-05-09T04:43:28.785Z,21.15
2023-05-09T04:44:00.732Z,21.15
2023-05-09T04:44:32.400Z,21.16
2023-05-09T04:45:04.333Z,21.18
2023-05-09T04:45:36.180Z,21.17
2023-05-09T04:46:08.013Z,21.16
2023-05-09T04:46:40.004Z,21.17
2023-05-09T04:47:11.755Z,21.13
2023-05-09T04:47:43.492Z,21.12
2023-05-09T04:48:15.070Z,21.12
2023-05-09T04:48:46.656Z,21.11
2023-05-09T04:49:18.332Z,21.13
2023-05-09T04:49:49.959Z,21.13
2023-05-09T04:50:21.571Z,21.14
2023-05-09T04:50:53.286Z,21.16
2023-05-09T04:51:24.930Z,21.12
2023-05-09T04:51:56.556Z,21.15
2023-05-09T04:52:28.112Z,21.15
2023-05-09T04:52:59.842Z,21.16
2023-05-09T04:53:31.498Z,21.15
2023-05-09T04:54:03.233Z,21.17
2023-05-09T04:54:34.962Z,21.16
2023-05-09T04:55:06.746Z,21.16
2023-05-09T04:55:38.337Z,21.16
2023-05-09T04:56:10.004Z,21.13
2023-05-09T04:56:41.579Z,21.12
2023-05-09T04:57:17.911Z,21.15
2023-05-09T04:57:50.484Z,21.15
2023-05-09T04:58:22.081Z,21.15
2023-05-09T04:58:53.664Z,21.16
2023-05-09T04:59:25.306Z,21.17
2023-05-09T04:59:56.959Z,21.17
2023-05-09T05:00:28.635Z,21.19
2023-05-09T05:01:00.181Z,21.18
2023-05-09T05:01:31.983Z,21.19
2023-05-09T05:02:03.674Z,21.20
2023-05-09T05:02:35.375Z,21.17
2023-05-09T05:03:07.288Z,21.19
2023-05-09T05:03:39.077Z,21.18
2023-05-09T05:04:10.921Z,21.16
2023-05-09T05:04:42.682Z,21.17
2023-05-09T05:05:14.560Z,21.18
2023-05-09T05:05:46.391Z,21.22
2023-05-09T05:06:18.100Z,21.23
2023-05-09T05:06:49.733Z,21.22
2023-05-09T05:07:21.338Z,21.21
2023-05-09T05:07:53.018Z,21.18
2023-05-09T05:08:24.628Z,21.20
2023-05-09T05:08:56.275Z,21.19
2023-05-09T05:09:27.962Z,21.19
2023-05-09T05:09:59.598Z,21.18
2023-05-09T05:10:31.208Z,21.18
2023-05-09T05:11:02.775Z,21.18
2023-05-09T05:11:34.409Z,21.18
2023-05-09T05:12:08.374Z,21.17
2023-05-09T05:12:41.101Z,21.17
2023-05-09T05:13:12.745Z,21.17
2023-05-09T05:13:44.644Z,21.15
2023-05-09T05:14:16.253Z,21.15
2023-05-09T05:14:47.909Z,21.16
2023-05-09T05:15:19.653Z,21.18
2023-05-09T05:15:51.318Z,21.17
2023-05-09T05:16:22.953Z,21.16
2023-05-09T05:16:54.514Z,21.17
2023-05-09T05:17:26.231Z,21.18
2023-05-09T05:17:57.874Z,21.15
2023-05-09T05:18:29.542Z,21.17
2023-05-09T05:19:01.158Z,21.23
2023-05-09T05:19:32.767Z,21.22
2023-05-09T05:20:04.561Z,21.20
2023-05-09T05:20:36.203Z,21.18
2023-05-09T05:21:07.785Z,21.16
2023-05-09T05:21:39.368Z,21.18
2023-05-09T05:22:11.038Z,21.17
2023-05-09T05:22:42.706Z,21.19
2023-05-09T05:23:14.455Z,21.21
2023-05-09T05:23:46.098Z,21.19
2023-05-09T05:24:17.656Z,21.19
2023-05-09T05:24:49.238Z,21.20
2023-05-09T05:25:20.848Z,21.19
2023-05-09T05:25:52.491Z,21.19
2023-05-09T05:26:24.217Z,21.19
2023-05-09T05:26:55.875Z,21.17
2023-05-09T05:27:27.576Z,21.20
2023-05-09T05:27:59.117Z,21.19
2023-05-09T05:28:30.840Z,21.19
2023-05-09T05:29:02.425Z,21.20
2023-05-09T05:29:34.035Z,21.19
2023-05-09T05:30:05.833Z,21.19
2023-05-09T05:30:37.369Z,21.20
2023-05-09T05:31:08.956Z,21.25
2023-05-09T05:31:40.729Z,21.25
2023-05-09T05:32:12.306Z,21.22
2023-05-09T05:32:43.930Z,21.21
2023-05-09T05:33:15.748Z,21.21
2023-05-09T05:33:47.445Z,21.20
2023-05-09T05:34:19.065Z,21.20
2023-05-09T05:34:50.672Z,21.22
2023-05-09T05:35:22.248Z,21.25
2023-05-09T05:35:53.801Z,21.24
2023-05-09T05:36:25.398Z,21.21
2023-05-09T05:36:57.126Z,21.21
2023-05-09T05:37:28.718Z,21.24
2023-05-09T05:38:00.307Z,21.25
2023-05-09T05:38:31.901Z,21.24
2023-05-09T05:39:03.567Z,21.26
2023-05-09T05:39:35.192Z,21.26
2023-05-09T05:40:06.901Z,21.27
2023-05-09T05:40:38.508Z,21.29
2023-05-09T05:41:10.125Z,21.26
2023-05-09T05:41:41.978Z,21.27
2023-05-09T05:42:13.767Z,21.25
2023-05-09T05:42:45.480Z,21.27
2023-05-09T05:43:17.091Z,21.26
2023-05-09T05:43:48.670Z,21.29
2023-05-09T05:44:20.404Z,21.28
2023-05-09T05:44:52.148Z,21.25
2023-05-09T05:45:23.875Z,21.24
2023-05-09T05:45:55.599Z,21.24
2023-05-09T05:46:27.341Z,21.25
2023-05-09T05:46:58.979Z,21.27
2023-05-09T05:47:33.382Z,21.27
2023-05-09T05:48:05.497Z,21.26
2023-05-09T05:48:37.087Z,21.26
2023-05-09T05:49:08.719Z,21.25
2023-05-09T05:49:40.375Z,21.26
2023-05-09T05:50:14.686Z,21.30
2023-05-09T05:50:46.303Z,21.30
2023-05-09T05:51:17.890Z,21.31
2023-05-09T05:51:49.570Z,21.31
2023-05-09T05:52:21.165Z,21.32
2023-05-09T05:52:52.781Z,21.32
2023-05-09T05:53:24.436Z,21.31
2023-05-09T05:53:56.041Z,21.30
2023-05-09T05:54:27.645Z,21.29
2023-05-09T05:54:59.292Z,21.31
2023-05-09T05:55:30.975Z,21.30
2023-05-09T05:56:02.580Z,21.31
2023-05-09T05:56:34.142Z,21.33
2023-05-09T05:57:05.809Z,21.32
2023-05-09T05:57:37.406Z,21.32
2023-05-09T05:58:09.069Z,21.32
2023-05-09T05:58:40.684Z,21.31
2023-05-09T05:59:13.502Z,21.31
2023-05-09T05:59:47.191Z,21.33
2023-05-09T06:00:18.906Z,21.30
2023-05-09T06:00:51.374Z,21.32
2023-05-09T06:01:23.003Z,21.35
2023-05-09T06:01:54.631Z,21.33
2023-05-09T06:02:26.296Z,21.36
2023-05-09T06:02:58.174Z,21.34
2023-05-09T06:03:29.845Z,21.32
2023-05-09T06:04:01.567Z,21.33
2023-05-09T06:04:33.239Z,21.33
2023-05-09T06:05:05.192Z,21.34
2023-05-09T06:05:36.824Z,21.32
2023-05-09T06:06:08.479Z,21.30
2023-05-09T06:06:40.121Z,21.32
2023-05-09T06:07:11.916Z,21.34
2023-05-09T06:07:43.489Z,21.33
2023-05-09T06:08:15.147Z,21.35
2023-05-09T06:08:46.675Z,21.36
2023-05-09T06:09:18.266Z,21.35
2023-05-09T06:09:49.833Z,21.37
2023-05-09T06:10:21.426Z,21.39
2023-05-09T06:10:53.041Z,21.35
2023-05-09T06:11:24.681Z,21.37
2023-05-09T06:11:56.242Z,21.39
2023-05-09T06:12:28.134Z,21.37
2023-05-09T06:12:59.879Z,21.39
2023-05-09T06:13:31.450Z,21.40
2023-05-09T06:14:03.061Z,21.40
2023-05-09T06:14:34.642Z,21.40
2023-05-09T06:15:06.528Z,21.40
2023-05-09T06:15:38.154Z,21.43
2023-05-09T06:16:18.436Z,21.41
2023-05-09T06:16:51.488Z,21.40
2023-05-09T06:17:23.299Z,21.40
2023-05-09T06:17:54.983Z,21.40
2023-05-09T06:18:26.632Z,21.42
2023-05-09T06:18:58.252Z,21.39
2023-05-09T06:19:29.881Z,21.40
2023-05-09T06:20:01.471Z,21.37
2023-05-09T06:20:33.110Z,21.40
2023-05-09T06:21:04.921Z,21.38
2023-05-09T06:21:36.508Z,21.41
2023-05-09T06:22:08.198Z,21.44
2023-05-09T06:22:39.732Z,21.40
2023-05-09T06:23:11.304Z,21.40
2023-05-09T06:23:57.741Z,21.41
2023-05-09T06:24:36.295Z,21.39
2023-05-09T06:25:10.292Z,21.39
2023-05-09T06:25:42.488Z,21.39
2023-05-09T06:26:14.069Z,21.41
2023-05-09T06:26:45.655Z,21.38
2023-05-09T06:27:17.478Z,21.41
2023-05-09T06:27:49.090Z,21.40
2023-05-09T06:28:20.799Z,21.40
2023-05-09T06:28:52.473Z,21.41
2023-05-09T06:29:24.167Z,21.40
2023-05-09T06:29:55.749Z,21.39
2023-05-09T06:30:27.425Z,21.40
2023-05-09T06:30:59.113Z,21.39
2023-05-09T06:31:30.837Z,21.41
2023-05-09T06:32:02.590Z,21.42
2023-05-09T06:32:34.411Z,21.42
2023-05-09T06:33:06.100Z,21.43
2023-05-09T06:33:37.744Z,21.41
2023-05-09T06:34:09.312Z,21.42
2023-05-09T06:34:40.905Z,21.43
2023-05-09T06:35:12.615Z,21.42
2023-05-09T06:35:44.329Z,21.41
2023-05-09T06:36:16.076Z,21.43
2023-05-09T06:36:47.650Z,21.43
2023-05-09T06:37:19.265Z,21.44
2023-05-09T06:37:50.865Z,21.44
2023-05-09T06:38:22.458Z,21.43
2023-05-09T06:38:54.102Z,21.44
2023-05-09T06:39:25.696Z,21.43
2023-05-09T06:39:57.465Z,21.44
2023-05-09T06:40:31.545Z,21.44
2023-05-09T06:41:03.176Z,21.45
2023-05-09T06:41:34.812Z,21.45
2023-05-09T06:42:06.582Z,21.45
2023-05-09T06:42:38.228Z,21.46
2023-05-09T06:43:09.873Z,21.44
2023-05-09T06:43:41.618Z,21.46
2023-05-09T06:44:13.269Z,21.45
2023-05-09T06:44:44.950Z,21.45
2023-05-09T06:45:17.004Z,21.45
2023-05-09T06:45:49.214Z,21.43
2023-05-09T06:46:20.963Z,21.43
2023-05-09T06:46:52.751Z,21.43
2023-05-09T06:47:24.398Z,21.44
2023-05-09T06:47:56.054Z,21.39
2023-05-09T06:48:27.665Z,21.42
2023-05-09T06:48:59.255Z,21.45
2023-05-09T06:49:30.873Z,21.45
2023-05-09T06:50:02.478Z,21.46
2023-05-09T06:50:34.067Z,21.44
2023-05-09T06:51:05.658Z,21.45
2023-05-09T06:51:37.301Z,21.46
2023-05-09T06:52:08.990Z,21.46
2023-05-09T06:52:40.656Z,21.46
2023-05-09T06:53:12.313Z,21.46
2023-05-09T06:53:43.970Z,21.48
2023-05-09T06:54:15.516Z,21.47
2023-05-09T06:54:47.241Z,21.46
2023-05-09T06:55:18.880Z,21.43
2023-05-09T06:55:50.479Z,21.42
2023-05-09T06:56:22.077Z,21.43